createdAt,value
2022-08-08T00:01:52.402Z,3.28
2022-08-08T00:04:30.103Z,2.90
2022-08-08T00:07:28.578Z,2.85
2022-08-08T00:10:01.113Z,3.08
2022-08-08T00:12:33.481Z,3.00
2022-08-08T00:15:17.704Z,2.80
2022-08-08T00:18:03.703Z,2.95
2022-08-08T00:20:51.730Z,3.10
2022-08-08T00:23:42.874Z,2.83
2022-08-08T00:26:14.757Z,3.17
2022-08-08T00:28:53.042Z,3.50
2022-08-08T00:32:15.238Z,3.08
2022-08-08T00:35:08.898Z,3.15
2022-08-08T00:38:30.967Z,3.22
2022-08-08T00:41:10.148Z,3.17
2022-08-08T00:44:18.026Z,3.90
2022-08-08T00:46:58.805Z,3.03
2022-08-08T00:49:37.183Z,4.20
2022-08-08T00:52:19.614Z,3.42
2022-08-08T00:55:06.993Z,2.78
2022-08-08T00:58:12.650Z,3.58
2022-08-08T01:01:10.005Z,3.30
2022-08-08T01:04:04.770Z,3.05
2022-08-08T01:06:47.585Z,3.70
2022-08-08T01:09:41.302Z,3.40
2022-08-08T01:15:17.250Z,2.75
2022-08-08T01:18:16.085Z,3.28
2022-08-08T01:21:07.406Z,3.42
2022-08-08T01:24:16.695Z,3.90
2022-08-08T01:27:07.084Z,3.42
2022-08-08T01:29:59.144Z,3.60
2022-08-08T01:32:59.492Z,3.58
2022-08-08T01:35:38.461Z,3.63
2022-08-08T01:38:44.543Z,3.67
2022-08-08T01:41:34.200Z,3.70
2022-08-08T01:44:31.067Z,3.38
2022-08-08T01:48:14.277Z,3.55
2022-08-08T01:50:48.989Z,3.50
2022-08-08T01:54:33.372Z,4.10
2022-08-08T01:56:46.801Z,4.00
2022-08-08T02:00:01.892Z,3.92
2022-08-08T02:02:34.127Z,4.03
2022-08-08T02:05:56.320Z,3.92
2022-08-08T02:08:47.306Z,4.18
2022-08-08T02:11:23.551Z,4.28
2022-08-08T02:14:21.012Z,3.67
2022-08-08T02:17:10.583Z,3.83
2022-08-08T02:20:08.211Z,3.70
2022-08-08T02:22:58.272Z,4.13
2022-08-08T02:25:32.912Z,4.18
2022-08-08T02:28:26.097Z,4.20
2022-08-08T02:31:59.505Z,4.35
2022-08-08T02:35:08.164Z,3.67
2022-08-08T02:38:09.338Z,4.10
2022-08-08T02:40:56.119Z,4.07
2022-08-08T02:44:37.667Z,4.57
2022-08-08T02:46:59.210Z,4.03
2022-08-08T02:49:48.343Z,3.88
2022-08-08T02:52:50.912Z,3.50
2022-08-08T02:55:23.449Z,3.78
2022-08-08T02:58:30.824Z,4.07
2022-08-08T03:01:39.873Z,3.78
2022-08-08T03:05:03.590Z,4.18
2022-08-08T03:07:57.669Z,4.32
2022-08-08T03:11:05.061Z,4.50
2022-08-08T03:16:02.468Z,3.78
2022-08-08T03:16:48.329Z,4.65
2022-08-08T03:19:50.511Z,4.13
2022-08-08T03:22:38.607Z,4.57
2022-08-08T03:25:14.448Z,3.65
2022-08-08T03:27:49.526Z,4.47
2022-08-08T03:30:23.705Z,4.70
2022-08-08T03:33:56.875Z,4.32
2022-08-08T03:35:57.010Z,4.80
2022-08-08T03:38:55.896Z,5.10
2022-08-08T03:42:12.229Z,4.80
2022-08-08T03:43:59.645Z,4.72
2022-08-08T03:46:32.425Z,5.05
2022-08-08T03:49:15.294Z,4.70
2022-08-08T03:51:55.446Z,4.68
2022-08-08T03:54:41.188Z,4.95
2022-08-08T03:58:34.565Z,4.65
2022-08-08T04:00:11.697Z,4.95
2022-08-08T04:02:47.262Z,5.05
2022-08-08T04:05:19.545Z,5.25
2022-08-08T04:07:54.279Z,5.30
2022-08-08T04:10:20.865Z,4.82
2022-08-08T04:12:49.808Z,5.25
2022-08-08T04:15:16.639Z,4.68
2022-08-08T04:17:58.451Z,5.00
2022-08-08T04:20:28.682Z,5.60
2022-08-08T04:22:57.130Z,5.13
2022-08-08T04:25:29.871Z,5.30
2022-08-08T04:28:35.523Z,5.22
2022-08-08T04:30:45.541Z,5.55
2022-08-08T04:33:15.614Z,6.00
2022-08-08T04:35:43.895Z,6.20
2022-08-08T04:38:21.353Z,5.20
2022-08-08T04:40:51.780Z,5.50
2022-08-08T04:43:22.112Z,5.22
2022-08-08T04:45:50.174Z,5.25
2022-08-08T04:48:17.476Z,5.45
2022-08-08T04:50:48.900Z,5.55
2022-08-08T04:53:51.992Z,5.22
2022-08-08T04:56:04.130Z,5.38
2022-08-08T04:58:31.153Z,5.45
2022-08-08T05:00:59.869Z,5.57
2022-08-08T05:04:11.202Z,5.38
2022-08-08T05:06:25.556Z,5.10
2022-08-08T05:08:55.881Z,5.13
2022-08-08T05:11:26.255Z,5.78
2022-08-08T05:13:57.516Z,5.85
2022-08-08T05:16:52.825Z,6.13
2022-08-08T05:20:12.227Z,5.72
2022-08-08T05:22:06.955Z,5.18
2022-08-08T05:24:34.185Z,4.82
2022-08-08T05:27:04.354Z,5.88
2022-08-08T05:29:30.861Z,5.60
2022-08-08T05:32:03.506Z,6.00
2022-08-08T05:34:47.699Z,5.50
2022-08-08T05:37:39.084Z,5.75
2022-08-08T05:40:11.242Z,4.95
2022-08-08T05:42:44.496Z,5.13
2022-08-08T05:45:25.465Z,6.40
2022-08-08T05:48:00.770Z,4.75
2022-08-08T05:50:30.150Z,5.35
2022-08-08T05:53:54.577Z,6.03
2022-08-08T05:56:10.179Z,4.78
2022-08-08T05:58:57.842Z,6.00
2022-08-08T06:01:56.400Z,6.03
2022-08-08T06:04:23.397Z,5.90
2022-08-08T06:07:00.278Z,5.53
2022-08-08T06:09:58.230Z,5.72
2022-08-08T06:12:30.149Z,5.07
2022-08-08T06:15:03.078Z,5.03
2022-08-08T06:17:51.167Z,5.00
2022-08-08T06:20:20.772Z,4.95
2022-08-08T06:22:49.444Z,4.78
2022-08-08T06:25:18.152Z,4.60
2022-08-08T06:27:50.473Z,5.25
2022-08-08T06:30:20.403Z,5.10
2022-08-08T06:32:58.181Z,5.07
2022-08-08T06:36:07.431Z,5.40
2022-08-08T06:38:21.631Z,4.65
2022-08-08T06:41:03.092Z,5.10
2022-08-08T06:43:34.796Z,4.90
2022-08-08T06:46:04.600Z,4.65
2022-08-08T06:48:36.313Z,5.03
2022-08-08T06:51:07.722Z,4.57
2022-08-08T06:53:39.242Z,4.47
2022-08-08T06:56:07.175Z,5.15
2022-08-08T06:58:34.126Z,5.10
2022-08-08T07:01:11.690Z,5.65
2022-08-08T07:04:39.557Z,4.45
2022-08-08T07:07:12.091Z,4.38
2022-08-08T07:09:59.224Z,4.78
2022-08-08T07:12:47.566Z,5.40
2022-08-08T07:15:32.451Z,4.72
2022-08-08T07:18:37.147Z,5.28
2022-08-08T07:21:02.190Z,5.85
2022-08-08T07:24:05.241Z,6.30
2022-08-08T07:26:35.570Z,5.38
2022-08-08T07:29:05.623Z,5.93
2022-08-08T07:31:35.876Z,5.53
2022-08-08T07:34:08.828Z,6.20
2022-08-08T07:39:10.760Z,5.55
2022-08-08T07:41:58.636Z,5.68
2022-08-08T07:44:37.421Z,5.63
2022-08-08T07:47:07.302Z,5.60
2022-08-08T07:49:34.027Z,5.20
2022-08-08T07:52:02.715Z,5.22
2022-08-08T07:54:42.085Z,7.05
2022-08-08T07:57:28.435Z,5.85
2022-08-08T08:00:16.242Z,5.65
2022-08-08T08:02:47.983Z,5.60
2022-08-08T08:05:26.427Z,5.72
2022-08-08T08:08:07.118Z,5.93
2022-08-08T08:10:35.942Z,5.57
2022-08-08T08:13:25.128Z,4.93
2022-08-08T08:16:06.049Z,3.53
2022-08-08T08:18:51.678Z,3.38
2022-08-08T08:21:35.536Z,3.72
2022-08-08T08:24:19.917Z,3.67
2022-08-08T08:26:54.767Z,4.43
2022-08-08T08:29:22.161Z,3.22
2022-08-08T08:31:54.117Z,3.40
2022-08-08T08:34:24.931Z,3.33
2022-08-08T08:36:59.611Z,3.22
2022-08-08T08:40:00.547Z,3.40
2022-08-08T08:42:14.818Z,3.78
2022-08-08T08:44:57.330Z,3.55
2022-08-08T08:47:26.253Z,3.10
2022-08-08T08:49:52.789Z,3.30
2022-08-08T08:52:22.231Z,3.22
2022-08-08T08:54:59.902Z,3.35
2022-08-08T08:57:29.261Z,3.38
2022-08-08T09:00:01.698Z,2.92
2022-08-08T09:02:35.109Z,2.60
2022-08-08T09:05:06.090Z,3.05
2022-08-08T09:07:39.691Z,3.25
2022-08-08T09:10:23.688Z,3.42
2022-08-08T09:12:56.524Z,3.60
2022-08-08T09:15:40.879Z,3.60
2022-08-08T09:18:09.413Z,2.72
2022-08-08T09:22:02.959Z,2.90
2022-08-08T09:23:33.313Z,3.10
2022-08-08T09:26:23.471Z,3.28
2022-08-08T09:28:57.805Z,3.03
2022-08-08T09:31:55.914Z,2.95
2022-08-08T09:34:32.516Z,3.20
2022-08-08T09:37:57.138Z,3.10
2022-08-08T09:40:10.503Z,3.35
2022-08-08T09:42:44.171Z,2.97
2022-08-08T09:46:02.201Z,2.90
2022-08-08T09:48:21.858Z,2.90
2022-08-08T09:50:56.876Z,2.55
2022-08-08T09:53:56.515Z,3.38
2022-08-08T09:56:24.895Z,3.50
2022-08-08T09:58:57.701Z,2.92
2022-08-08T10:01:59.470Z,2.53
2022-08-08T10:04:35.641Z,2.75
2022-08-08T10:07:07.602Z,2.28
2022-08-08T10:10:00.989Z,2.75
2022-08-08T10:12:38.012Z,2.70
2022-08-08T10:15:17.528Z,3.33
2022-08-08T10:18:06.662Z,2.95
2022-08-08T10:20:51.289Z,2.75
2022-08-08T10:23:42.019Z,2.67
2022-08-08T10:26:30.396Z,3.08
2022-08-08T10:29:03.199Z,2.60
2022-08-08T10:31:49.570Z,2.83
2022-08-08T10:34:21.088Z,3.20
2022-08-08T10:36:48.940Z,2.93
2022-08-08T10:39:43.021Z,2.70
2022-08-08T10:42:19.075Z,2.78
2022-08-08T10:44:49.479Z,2.75
2022-08-08T10:47:20.610Z,2.60
2022-08-08T10:50:02.172Z,2.80
2022-08-08T10:52:33.729Z,2.88
2022-08-08T10:55:07.724Z,2.70
2022-08-08T10:57:50.208Z,1.85
2022-08-08T11:00:27.293Z,2.13
2022-08-08T11:02:55.233Z,2.55
2022-08-08T11:05:22.974Z,2.30
2022-08-08T11:08:36.927Z,2.40
2022-08-08T11:10:37.825Z,2.20
2022-08-08T11:13:29.633Z,1.90
2022-08-08T11:15:52.318Z,1.80
2022-08-08T11:18:30.489Z,1.60
2022-08-08T11:21:00.963Z,2.13
2022-08-08T11:23:36.744Z,1.80
2022-08-08T11:26:05.375Z,1.95
2022-08-08T11:28:38.844Z,1.88
2022-08-08T11:31:09.537Z,1.98
2022-08-08T11:33:51.726Z,1.55
2022-08-08T11:36:28.911Z,1.90
2022-08-08T11:38:56.396Z,1.70
2022-08-08T11:41:32.111Z,2.00
2022-08-08T11:44:01.339Z,1.38
2022-08-08T11:46:30.607Z,1.50
2022-08-08T11:49:00.163Z,1.40
2022-08-08T11:51:39.257Z,1.48
2022-08-08T11:54:26.892Z,1.42
2022-08-08T11:56:56.139Z,1.42
2022-08-08T11:59:57.782Z,1.60
2022-08-08T12:02:33.000Z,1.40
2022-08-08T12:05:04.850Z,1.40
2022-08-08T12:07:53.533Z,1.77
2022-08-08T12:10:22.103Z,1.60
2022-08-08T12:12:51.866Z,1.52
2022-08-08T12:17:54.911Z,1.52
2022-08-08T12:20:21.567Z,1.48
2022-08-08T12:22:53.541Z,1.52
2022-08-08T12:25:29.731Z,1.42
2022-08-08T12:28:15.318Z,2.97
2022-08-08T12:30:48.015Z,1.42
2022-08-08T12:33:37.593Z,1.70
2022-08-08T12:36:16.379Z,1.40
2022-08-08T12:38:51.223Z,1.35
2022-08-08T12:41:33.933Z,1.45
2022-08-08T12:44:10.912Z,1.73
2022-08-08T12:46:37.660Z,1.77
2022-08-08T12:49:25.124Z,1.52
2022-08-08T12:51:58.457Z,1.50
2022-08-08T12:57:38.354Z,1.15
2022-08-08T13:00:33.818Z,1.65
2022-08-08T13:03:05.706Z,1.45
2022-08-08T13:06:02.215Z,1.60
2022-08-08T13:08:21.953Z,1.48
2022-08-08T13:10:56.586Z,1.55
2022-08-08T13:13:35.172Z,1.70
2022-08-08T13:16:20.980Z,1.50
2022-08-08T13:18:58.357Z,1.55
2022-08-08T13:21:48.851Z,1.73
2022-08-08T13:24:18.697Z,1.50
2022-08-08T13:27:05.244Z,1.50
2022-08-08T13:29:54.454Z,1.60
2022-08-08T13:32:23.788Z,1.20
2022-08-08T13:34:55.411Z,1.42
2022-08-08T13:37:52.251Z,1.50
2022-08-08T13:40:10.732Z,2.05
2022-08-08T13:42:37.762Z,1.65
2022-08-08T13:45:05.875Z,1.40
2022-08-08T13:47:38.507Z,1.48
2022-08-08T13:50:35.882Z,1.50
2022-08-08T13:52:56.427Z,1.50
2022-08-08T13:55:36.274Z,1.40
2022-08-08T13:58:08.365Z,1.23
2022-08-08T14:00:45.483Z,1.33
2022-08-08T14:03:53.880Z,1.30
2022-08-08T14:06:20.506Z,1.40
2022-08-08T14:08:57.904Z,1.50
2022-08-08T14:11:27.939Z,1.05
2022-08-08T14:13:59.470Z,1.30
2022-08-08T14:16:27.839Z,1.35
2022-08-08T14:19:01.002Z,1.30
2022-08-08T14:21:51.924Z,1.38
2022-08-08T14:24:33.673Z,1.30
2022-08-08T14:27:01.714Z,1.23
2022-08-08T14:29:30.436Z,1.20
2022-08-08T14:32:09.037Z,1.13
2022-08-08T14:34:42.145Z,1.20
2022-08-08T14:37:13.108Z,1.08
2022-08-08T14:39:49.802Z,1.15
2022-08-08T14:42:25.119Z,1.13
2022-08-08T14:45:01.051Z,1.10
2022-08-08T14:47:30.328Z,1.02
2022-08-08T14:50:21.453Z,1.13
2022-08-08T14:53:09.746Z,1.30
2022-08-08T14:55:42.334Z,1.20
2022-08-08T14:58:16.114Z,1.05
2022-08-08T15:00:44.936Z,1.17
2022-08-08T15:03:14.532Z,1.33
2022-08-08T15:05:52.346Z,1.00
2022-08-08T15:08:35.484Z,1.00
2022-08-08T15:11:06.741Z,1.10
2022-08-08T15:13:35.194Z,1.25
2022-08-08T15:16:12.242Z,1.33
2022-08-08T15:18:50.081Z,1.23
2022-08-08T15:21:18.682Z,1.00
2022-08-08T15:23:51.551Z,1.20
2022-08-08T15:26:21.515Z,0.82
2022-08-08T15:28:53.050Z,0.80
2022-08-08T15:31:55.651Z,0.90
2022-08-08T15:34:08.423Z,1.10
2022-08-08T15:36:35.489Z,1.00
2022-08-08T15:39:04.234Z,0.82
2022-08-08T15:41:43.601Z,0.75
2022-08-08T15:44:13.340Z,1.00
2022-08-08T15:46:45.576Z,1.30
2022-08-08T15:49:20.655Z,1.00
2022-08-08T15:51:54.691Z,0.88
2022-08-08T15:54:38.866Z,0.95
2022-08-08T15:57:08.929Z,0.90
2022-08-08T16:00:05.623Z,1.17
2022-08-08T16:02:31.049Z,0.90
2022-08-08T16:05:00.571Z,1.00
2022-08-08T16:07:39.428Z,1.00
2022-08-08T16:13:04.329Z,0.90
2022-08-08T16:13:31.932Z,1.92
2022-08-08T16:15:58.083Z,1.10
2022-08-08T16:18:35.827Z,0.98
2022-08-08T16:21:03.044Z,1.05
2022-08-08T16:23:32.913Z,1.58
2022-08-08T16:26:12.840Z,1.02
2022-08-08T16:28:44.300Z,0.80
2022-08-08T16:31:12.370Z,0.95
2022-08-08T16:33:40.156Z,1.05
2022-08-08T16:36:09.852Z,0.93
2022-08-08T16:38:44.544Z,0.68
2022-08-08T16:41:18.503Z,0.98
2022-08-08T16:43:50.862Z,1.02
2022-08-08T16:46:37.692Z,0.90
2022-08-08T16:49:08.782Z,0.80
2022-08-08T16:55:18.393Z,1.20
2022-08-08T16:55:20.745Z,1.02
2022-08-08T16:57:22.781Z,1.13
2022-08-08T16:59:51.904Z,0.88
2022-08-08T17:02:32.628Z,1.10
2022-08-08T17:05:08.040Z,1.17
2022-08-08T17:07:37.862Z,1.20
2022-08-08T17:10:11.525Z,1.02
2022-08-08T17:12:39.035Z,0.90
2022-08-08T17:15:17.805Z,0.98
2022-08-08T17:18:03.620Z,1.20
2022-08-08T17:20:40.227Z,1.50
2022-08-08T17:23:17.546Z,0.95
2022-08-08T17:25:55.000Z,0.95
2022-08-08T17:28:34.942Z,0.98
2022-08-08T17:31:39.585Z,1.17
2022-08-08T17:34:47.920Z,2.88
2022-08-08T17:37:01.078Z,1.08
2022-08-08T17:40:04.101Z,1.15
2022-08-08T17:42:12.432Z,0.98
2022-08-08T17:44:39.789Z,1.13
2022-08-08T17:47:11.015Z,1.02
2022-08-08T17:49:43.474Z,1.30
2022-08-08T17:52:10.690Z,1.02
2022-08-08T17:54:37.517Z,1.40
2022-08-08T17:57:05.742Z,0.77
2022-08-08T17:59:36.527Z,1.00
2022-08-08T18:02:16.343Z,1.08
2022-08-08T18:04:48.607Z,1.00
2022-08-08T18:08:03.575Z,0.70
2022-08-08T18:10:05.235Z,1.00
2022-08-08T18:12:31.803Z,0.90
2022-08-08T18:14:58.700Z,0.90
2022-08-08T18:17:28.428Z,0.90
2022-08-08T18:20:43.316Z,0.90
2022-08-08T18:22:59.948Z,2.65
2022-08-08T18:25:26.497Z,1.10
2022-08-08T18:28:03.995Z,0.90
2022-08-08T18:30:30.537Z,0.80
2022-08-08T18:32:59.776Z,1.00
2022-08-08T18:35:30.678Z,1.20
2022-08-08T18:38:16.902Z,1.00
2022-08-08T18:40:45.843Z,1.00
2022-08-08T18:43:16.047Z,0.75
2022-08-08T18:46:00.334Z,1.08
2022-08-08T18:48:30.876Z,0.90
2022-08-08T18:50:58.741Z,0.70
2022-08-08T18:54:02.913Z,0.90
2022-08-08T18:56:29.281Z,0.80
2022-08-08T18:58:55.818Z,1.20
2022-08-08T19:02:25.346Z,1.13
2022-08-08T19:04:12.607Z,0.93
2022-08-08T19:06:39.801Z,0.80
2022-08-08T19:09:13.011Z,0.90
2022-08-08T19:11:40.311Z,1.02
2022-08-08T19:14:12.913Z,0.90
2022-08-08T19:16:41.242Z,0.77
2022-08-08T19:19:13.865Z,1.02
2022-08-08T19:21:49.501Z,2.20
2022-08-08T19:24:18.507Z,0.77
2022-08-08T19:27:06.630Z,0.90
2022-08-08T19:29:35.775Z,1.20
2022-08-08T19:32:09.241Z,1.02
2022-08-08T19:34:41.501Z,1.42
2022-08-08T19:37:15.951Z,0.80
2022-08-08T19:39:43.479Z,1.33
2022-08-08T19:42:13.524Z,0.90
2022-08-08T19:44:46.404Z,1.10
2022-08-08T19:47:24.877Z,1.27
2022-08-08T19:50:00.545Z,0.90
2022-08-08T19:52:35.126Z,0.80
2022-08-08T19:55:12.942Z,1.30
2022-08-08T19:57:43.208Z,1.27
2022-08-08T20:00:30.067Z,1.00
2022-08-08T20:02:59.447Z,0.90
2022-08-08T20:06:14.323Z,0.90
2022-08-08T20:08:30.992Z,1.10
2022-08-08T20:10:59.911Z,0.98
2022-08-08T20:14:12.410Z,0.88
2022-08-08T20:16:13.324Z,1.10
2022-08-08T20:18:52.467Z,1.08
2022-08-08T20:21:23.230Z,0.80
2022-08-08T20:23:54.225Z,1.23
2022-08-08T20:28:59.103Z,0.88
2022-08-08T20:31:47.095Z,0.90
2022-08-08T20:34:28.765Z,1.13
2022-08-08T20:37:02.491Z,1.48
2022-08-08T20:39:39.441Z,1.25
2022-08-08T20:42:28.169Z,1.35
2022-08-08T20:44:57.257Z,1.00
2022-08-08T20:47:25.400Z,1.00
2022-08-08T20:49:57.484Z,1.13
2022-08-08T20:52:26.498Z,1.10
2022-08-08T20:54:53.268Z,1.38
2022-08-08T20:57:21.107Z,0.90
2022-08-08T20:59:48.081Z,1.08
2022-08-08T21:02:19.995Z,1.05
2022-08-08T21:04:53.088Z,0.95
2022-08-08T21:07:47.647Z,1.30
2022-08-08T21:10:13.051Z,1.20
2022-08-08T21:12:41.416Z,1.02
2022-08-08T21:15:12.006Z,1.33
2022-08-08T21:17:45.133Z,1.40
2022-08-08T21:20:22.639Z,1.10
2022-08-08T21:23:02.314Z,1.20
2022-08-08T21:25:29.277Z,1.30
2022-08-08T21:28:09.350Z,1.60
2022-08-08T21:30:45.366Z,1.17
2022-08-08T21:33:16.541Z,1.30
2022-08-08T21:36:16.280Z,1.10
2022-08-08T21:38:30.005Z,0.90
2022-08-08T21:40:57.886Z,1.35
2022-08-08T21:43:33.803Z,1.20
2022-08-08T21:48:12.845Z,0.90
2022-08-08T21:48:52.031Z,0.80
2022-08-08T21:51:46.019Z,1.10
2022-08-08T21:54:34.361Z,1.10
2022-08-08T21:56:54.502Z,1.80
2022-08-08T21:59:21.243Z,1.27
2022-08-08T22:01:52.295Z,1.50
2022-08-08T22:04:24.795Z,1.15
2022-08-08T22:06:52.480Z,1.30
2022-08-08T22:09:19.421Z,1.20
2022-08-08T22:11:56.552Z,0.90
2022-08-08T22:14:29.790Z,1.05
2022-08-08T22:16:56.514Z,0.93
2022-08-08T22:19:29.514Z,0.93
2022-08-08T22:21:56.696Z,1.27
2022-08-08T22:24:28.126Z,1.33
2022-08-08T22:27:02.658Z,1.20
2022-08-08T22:29:59.169Z,1.08
2022-08-08T22:32:19.084Z,1.30
2022-08-08T22:34:51.173Z,1.23
2022-08-08T22:37:27.891Z,1.63
2022-08-08T22:40:11.918Z,1.20
2022-08-08T22:42:47.115Z,1.40
2022-08-08T22:45:15.526Z,1.10
2022-08-08T22:47:49.082Z,1.50
2022-08-08T22:50:25.267Z,1.58
2022-08-08T22:53:22.438Z,1.55
2022-08-08T22:55:58.517Z,1.60
2022-08-08T22:58:33.069Z,1.48
2022-08-08T23:02:01.607Z,1.77
2022-08-08T23:03:56.325Z,1.70
2022-08-08T23:06:24.488Z,1.63
2022-08-08T23:08:56.014Z,1.77
2022-08-08T23:12:27.769Z,1.45
2022-08-08T23:14:21.169Z,1.63
2022-08-08T23:16:58.000Z,1.90
2022-08-08T23:19:30.620Z,2.15
2022-08-08T23:21:58.725Z,2.00
2022-08-08T23:24:25.253Z,2.10
2022-08-08T23:26:56.080Z,2.15
2022-08-08T23:29:25.339Z,1.88
2022-08-08T23:31:52.206Z,1.90
2022-08-08T23:34:19.891Z,1.80
2022-08-08T23:36:47.756Z,1.75
2022-08-08T23:39:15.536Z,2.00
2022-08-08T23:41:46.878Z,2.05
2022-08-08T23:44:16.916Z,2.17
2022-08-08T23:49:01.796Z,2.28
2022-08-08T23:49:33.909Z,2.30
2022-08-08T23:52:06.351Z,2.60
2022-08-08T23:54:41.207Z,2.30
2022-08-08T23:57:25.367Z,2.42
